createdAt,value
2022-07-30T00:03:57.744Z,3.90
2022-07-30T00:08:59.586Z,4.28
2022-07-30T00:14:02.101Z,4.50
2022-07-30T00:19:03.941Z,4.30
2022-07-30T00:24:08.738Z,5.53
2022-07-30T00:29:10.523Z,4.87
2022-07-30T00:34:13.365Z,4.85
2022-07-30T00:39:15.136Z,4.60
2022-07-30T00:44:16.885Z,5.40
2022-07-30T00:49:18.938Z,5.13
2022-07-30T00:54:21.507Z,5.57
2022-07-30T00:59:23.212Z,4.90
2022-07-30T01:04:25.797Z,4.65
2022-07-30T01:09:27.468Z,5.30
2022-07-30T01:14:29.419Z,5.22
2022-07-30T01:19:55.848Z,5.03
2022-07-30T01:25:00.469Z,5.30
2022-07-30T01:30:05.731Z,4.97
2022-07-30T01:35:10.767Z,5.05
2022-07-30T01:40:14.621Z,4.90
2022-07-30T01:45:17.793Z,4.97
2022-07-30T01:50:21.554Z,5.80
2022-07-30T01:55:43.952Z,5.07
2022-07-30T02:00:48.757Z,5.13
2022-07-30T02:06:05.415Z,5.32
2022-07-30T02:11:15.082Z,5.40
2022-07-30T02:16:30.715Z,5.40
2022-07-30T02:21:37.475Z,5.30
2022-07-30T02:26:41.754Z,5.47
2022-07-30T02:31:44.150Z,5.45
2022-07-30T02:36:47.218Z,5.35
2022-07-30T02:41:50.243Z,5.00
2022-07-30T02:46:53.617Z,5.80
2022-07-30T02:51:56.599Z,5.32
2022-07-30T02:57:01.529Z,5.50
2022-07-30T03:02:04.655Z,5.00
2022-07-30T03:07:08.785Z,5.40
2022-07-30T03:12:14.202Z,5.47
2022-07-30T03:17:17.223Z,5.75
2022-07-30T03:22:20.286Z,6.40
2022-07-30T03:27:23.652Z,5.72
2022-07-30T03:32:26.677Z,6.10
2022-07-30T03:37:29.833Z,6.10
2022-07-30T03:42:33.565Z,6.85
2022-07-30T03:47:38.619Z,6.00
2022-07-30T03:52:42.282Z,5.88
2022-07-30T03:57:44.176Z,5.73
2022-07-30T04:02:47.579Z,5.63
2022-07-30T04:07:49.521Z,5.85
2022-07-30T04:12:51.292Z,6.07
2022-07-30T04:17:58.352Z,6.10
2022-07-30T04:23:00.817Z,5.90
2022-07-30T04:28:05.013Z,5.90
2022-07-30T04:33:08.398Z,6.85
2022-07-30T04:38:10.538Z,6.32
2022-07-30T04:43:12.483Z,6.60
2022-07-30T04:48:14.305Z,5.97
2022-07-30T04:53:16.907Z,6.38
2022-07-30T04:58:20.685Z,6.50
2022-07-30T05:03:24.818Z,5.90
2022-07-30T05:08:28.169Z,5.97
2022-07-30T05:13:34.319Z,5.70
2022-07-30T05:18:40.117Z,6.22
2022-07-30T05:23:41.845Z,6.60
2022-07-30T05:28:55.247Z,5.82
2022-07-30T05:34:02.799Z,5.97
2022-07-30T05:39:05.524Z,6.40
2022-07-30T05:44:07.501Z,6.55
2022-07-30T05:49:09.423Z,6.53
2022-07-30T05:54:11.255Z,7.40
2022-07-30T05:59:12.956Z,7.00
2022-07-30T06:04:14.741Z,8.45
2022-07-30T06:09:16.545Z,9.60
2022-07-30T06:14:24.182Z,9.70
2022-07-30T06:19:26.284Z,9.55
2022-07-30T06:24:28.971Z,9.57
2022-07-30T06:29:31.013Z,10.30
2022-07-30T06:34:32.688Z,10.75
2022-07-30T06:39:57.512Z,11.20
2022-07-30T06:44:56.081Z,11.13
2022-07-30T06:49:58.244Z,9.70
2022-07-30T06:54:59.968Z,11.10
2022-07-30T07:00:01.760Z,11.82
2022-07-30T07:05:03.592Z,11.48
2022-07-30T07:10:06.022Z,12.07
2022-07-30T07:15:08.775Z,11.35
2022-07-30T07:20:10.867Z,11.80
2022-07-30T07:25:12.588Z,10.70
2022-07-30T07:30:14.541Z,11.25
2022-07-30T07:35:17.247Z,10.00
2022-07-30T07:40:18.984Z,10.60
2022-07-30T07:45:20.674Z,11.23
2022-07-30T07:50:22.931Z,10.77
2022-07-30T07:55:24.949Z,10.23
2022-07-30T08:00:27.373Z,8.88
2022-07-30T08:06:01.764Z,9.10
2022-07-30T08:10:50.916Z,8.77
2022-07-30T08:15:52.937Z,8.68
2022-07-30T08:20:55.222Z,8.77
2022-07-30T08:25:58.629Z,8.88
2022-07-30T08:31:02.405Z,7.70
2022-07-30T08:36:09.823Z,8.82
2022-07-30T08:41:12.600Z,8.60
2022-07-30T08:46:17.781Z,8.57
2022-07-30T08:51:20.157Z,9.50
2022-07-30T08:56:22.220Z,9.18
2022-07-30T09:01:24.079Z,8.10
2022-07-30T09:06:25.938Z,8.10
2022-07-30T09:11:28.396Z,9.75
2022-07-30T09:16:30.149Z,9.20
2022-07-30T09:21:31.935Z,8.27
2022-07-30T09:27:00.185Z,7.32
2022-07-30T09:32:06.852Z,8.10
2022-07-30T09:37:14.685Z,8.10
2022-07-30T09:42:22.260Z,7.20
2022-07-30T09:47:35.078Z,7.70
2022-07-30T09:52:43.903Z,7.63
2022-07-30T09:57:59.195Z,6.30
2022-07-30T10:03:33.999Z,6.72
2022-07-30T10:08:51.650Z,7.25
2022-07-30T10:13:59.079Z,6.50
2022-07-30T10:19:01.283Z,6.32
2022-07-30T10:24:04.129Z,5.72
2022-07-30T10:29:09.145Z,5.95
2022-07-30T10:34:18.914Z,5.00
2022-07-30T10:39:29.658Z,4.95
2022-07-30T10:44:55.262Z,5.78
2022-07-30T10:50:07.642Z,5.82
2022-07-30T10:55:15.791Z,4.68
2022-07-30T11:05:27.362Z,4.85
2022-07-30T11:10:43.932Z,5.22
2022-07-30T11:15:54.554Z,2.75
2022-07-30T11:21:21.389Z,2.78
2022-07-30T11:26:41.165Z,3.00
2022-07-30T11:31:57.074Z,3.35
2022-07-30T11:37:19.305Z,3.35
2022-07-30T11:42:31.625Z,3.20
2022-07-30T11:47:33.681Z,3.20
2022-07-30T11:52:35.589Z,3.95
2022-07-30T11:57:41.065Z,4.00
2022-07-30T12:02:42.844Z,3.92
2022-07-30T12:07:44.894Z,3.80
2022-07-30T12:12:47.347Z,3.53
2022-07-30T12:17:51.420Z,3.72
2022-07-30T12:23:11.042Z,4.53
2022-07-30T12:28:20.768Z,4.50
2022-07-30T12:33:23.385Z,4.00
2022-07-30T12:38:27.084Z,4.15
2022-07-30T12:43:51.898Z,4.87
2022-07-30T12:49:19.127Z,4.25
2022-07-30T12:54:25.276Z,4.25
2022-07-30T12:59:27.790Z,4.65
2022-07-30T13:04:31.542Z,4.03
2022-07-30T13:09:33.485Z,4.37
2022-07-30T13:14:35.316Z,3.70
2022-07-30T13:19:37.784Z,3.33
2022-07-30T13:24:39.680Z,2.97
2022-07-30T13:29:42.738Z,3.15
2022-07-30T13:34:45.225Z,3.20
2022-07-30T13:39:46.915Z,3.35
2022-07-30T13:44:48.801Z,2.72
2022-07-30T13:49:50.949Z,2.95
2022-07-30T13:54:53.700Z,3.60
2022-07-30T13:59:55.498Z,3.72
2022-07-30T14:04:57.318Z,3.55
2022-07-30T14:09:59.024Z,3.58
2022-07-30T14:15:01.101Z,3.63
2022-07-30T14:20:03.006Z,3.47
2022-07-30T14:25:05.180Z,2.97
2022-07-30T14:30:09.429Z,2.83
2022-07-30T14:40:13.496Z,2.90
2022-07-30T14:45:15.517Z,2.75
2022-07-30T14:50:17.249Z,2.58
2022-07-30T14:55:19.197Z,2.55
2022-07-30T15:00:21.275Z,2.22
2022-07-30T15:05:26.037Z,2.20
2022-07-30T15:10:27.915Z,2.53
2022-07-30T15:15:31.519Z,2.53
2022-07-30T15:20:39.300Z,3.03
2022-07-30T15:25:42.105Z,2.70
2022-07-30T15:30:43.922Z,2.53
2022-07-30T15:35:45.677Z,2.25
2022-07-30T15:40:47.500Z,2.72
2022-07-30T15:45:55.363Z,2.00
2022-07-30T15:51:07.834Z,1.92
2022-07-30T15:56:10.612Z,1.60
2022-07-30T16:01:12.794Z,1.85
2022-07-30T16:06:14.701Z,1.80
2022-07-30T16:11:16.513Z,1.58
2022-07-30T16:16:18.528Z,1.90
2022-07-30T16:21:21.757Z,2.03
2022-07-30T16:26:23.585Z,1.60
2022-07-30T16:31:25.297Z,1.45
2022-07-30T16:36:27.235Z,1.73
2022-07-30T16:41:28.973Z,1.30
2022-07-30T16:46:30.750Z,1.98
2022-07-30T16:51:32.694Z,1.65
2022-07-30T16:56:34.508Z,1.48
2022-07-30T17:01:36.374Z,1.85
2022-07-30T17:06:40.014Z,1.88
2022-07-30T17:11:48.019Z,1.50
2022-07-30T17:16:54.035Z,1.90
2022-07-30T17:21:55.768Z,1.60
2022-07-30T17:26:58.428Z,2.00
2022-07-30T17:32:00.598Z,1.60
2022-07-30T17:37:02.597Z,1.73
2022-07-30T17:42:04.472Z,2.15
2022-07-30T17:47:08.843Z,2.00
2022-07-30T17:52:14.205Z,1.70
2022-07-30T17:57:16.046Z,1.80
2022-07-30T18:02:17.862Z,2.08
2022-07-30T18:07:25.825Z,2.00
2022-07-30T18:12:27.629Z,2.20
2022-07-30T18:17:30.145Z,2.08
2022-07-30T18:22:32.321Z,2.08
2022-07-30T18:27:34.150Z,2.78
2022-07-30T18:32:35.909Z,2.13
2022-07-30T18:37:40.064Z,1.67
2022-07-30T18:42:43.528Z,1.90
2022-07-30T18:47:46.384Z,2.08
2022-07-30T18:52:48.421Z,2.20
2022-07-30T18:57:52.058Z,2.13
2022-07-30T19:02:54.197Z,1.95
2022-07-30T19:07:58.478Z,2.00
2022-07-30T19:13:01.073Z,2.25
2022-07-30T19:18:03.212Z,2.10
2022-07-30T19:23:07.381Z,2.17
2022-07-30T19:28:11.180Z,2.28
2022-07-30T19:33:15.620Z,2.17
2022-07-30T19:38:23.962Z,2.22
2022-07-30T19:43:26.079Z,2.33
2022-07-30T19:48:31.586Z,2.35
2022-07-30T19:53:34.671Z,2.42
2022-07-30T19:58:36.722Z,2.40
2022-07-30T20:03:39.131Z,2.30
2022-07-30T20:08:41.924Z,2.60
2022-07-30T20:13:46.919Z,2.67
2022-07-30T20:18:49.760Z,3.00
2022-07-30T20:23:54.477Z,2.70
2022-07-30T20:28:56.212Z,2.95
2022-07-30T20:34:00.873Z,3.10
2022-07-30T20:39:03.230Z,2.75
2022-07-30T20:44:06.731Z,2.80
2022-07-30T20:49:10.440Z,3.17
2022-07-30T20:54:14.388Z,3.38
2022-07-30T20:59:16.633Z,3.53
2022-07-30T21:04:25.502Z,3.50
2022-07-30T21:09:29.164Z,2.85
2022-07-30T21:14:52.774Z,3.47
2022-07-30T21:19:54.438Z,3.10
2022-07-30T21:24:56.709Z,3.15
2022-07-30T21:29:58.540Z,3.63
2022-07-30T21:35:02.335Z,2.88
2022-07-30T21:40:10.781Z,3.17
2022-07-30T21:45:12.511Z,2.75
2022-07-30T21:50:14.772Z,2.83
2022-07-30T21:55:18.328Z,2.37
2022-07-30T22:00:46.041Z,2.70
2022-07-30T22:05:50.318Z,2.83
2022-07-30T22:10:55.591Z,2.80
2022-07-30T22:15:57.330Z,2.97
2022-07-30T22:20:59.557Z,3.30
2022-07-30T22:26:01.925Z,2.80
2022-07-30T22:31:05.684Z,2.70
2022-07-30T22:36:09.819Z,2.90
2022-07-30T22:41:13.994Z,3.05
2022-07-30T22:46:30.127Z,3.38
2022-07-30T22:52:01.853Z,3.17
2022-07-30T22:56:54.793Z,3.22
2022-07-30T23:01:56.965Z,3.20
2022-07-30T23:06:58.833Z,3.03
2022-07-30T23:12:01.346Z,2.95
2022-07-30T23:17:03.415Z,3.10
2022-07-30T23:22:06.987Z,2.95
2022-07-30T23:27:08.841Z,3.10
2022-07-30T23:32:10.662Z,2.70
2022-07-30T23:37:14.832Z,2.95
2022-07-30T23:42:17.174Z,3.30
2022-07-30T23:47:18.844Z,3.25
2022-07-30T23:52:42.240Z,2.90
2022-07-30T23:57:43.925Z,2.63
